Vg 117 Kungsvik — SBTH — position and weather

sailwx.info

Track history (hours):
 
Tides and Currents Weather Stations Pressure Air Temp Water Temp Dewpoint Dewpoint Depression Visibility Wind Speed Wind Dir Waves Ship Positions

Vg 117 Kungsvik

Last reported at 2015-Sep-04 07:33 UTC. Time now 2015-Sep-04 07:43 UTC.
Position N 57°02' E 012°04'.

Length 17 m.

Type: Fishing. MMSI: 266137000.

Date/timePositionNaut miles runAvg speedWind from/ knotsBaromVisibWave heightAir tempDewpointWater temp
2015-Sep-04 07:33N 57°02' E 012°04'2 1.9
2015-Sep-04 06:33N 57°03' E 012°02'1 1.3
2015-Sep-04 05:34N 57°02' E 011°60'2 2.4
2015-Sep-04 04:34N 57°02' E 012°04'2 2.3
2015-Sep-04 03:34N 57°02' E 012°08'4 4.2
2015-Sep-04 02:32N 57°03' E 012°16'0 0.2
2015-Sep-04 00:27N 57°04' E 012°16'0 0.0
2015-Sep-03 22:09N 57°04' E 012°16'0 0.0
2015-Sep-03 21:15N 57°04' E 012°16'0 0.0
2015-Sep-03 20:15N 57°04' E 012°16'0 0.0
2015-Sep-03 18:33N 57°04' E 012°16'3 2.7
2015-Sep-03 17:33N 57°03' E 012°12'2 2.0
2015-Sep-03 16:28N 57°02' E 012°08'2 2.6
2015-Sep-03 15:33N 57°02' E 012°04'1 0.7
2015-Sep-03 14:33N 57°02' E 012°03'2 1.7
2015-Sep-03 13:33N 57°01' E 012°02'2 2.4
2015-Sep-03 12:33N 57°03' E 011°59'1 0.3
2015-Sep-03 10:27N 57°03' E 011°59'2 1.5
2015-Sep-03 09:27N 57°03' E 012°02'2 2.3
2015-Sep-03 08:31N 57°05' E 011°60'3 2.6
2015-Sep-03 07:30N 57°07' E 011°59'3 1.5
2015-Sep-03 05:14N 57°05' E 012°04'2 2.5
2015-Sep-03 04:32N 57°04' E 012°07'5 4.8
2015-Sep-03 03:33N 57°03' E 012°15'1 0.0
2015-Sep-02 10:24N 57°04' E 012°16'0 0.0
2015-Sep-02 09:30N 57°04' E 012°16'0 0.0
2015-Sep-02 08:30N 57°04' E 012°16'0 0.0
2015-Sep-02 07:24N 57°04' E 012°16'0 0.0
2015-Sep-02 06:30N 57°04' E 012°16'0 0.0
2015-Sep-02 05:18N 57°04' E 012°16'0 0.0
2015-Sep-02 04:30N 57°04' E 012°16'0 0.0
2015-Sep-02 03:30N 57°04' E 012°16'0 0.0
2015-Sep-02 02:30N 57°04' E 012°16'0 0.0
2015-Sep-02 01:25N 57°04' E 012°16'0 0.0
2015-Sep-02 00:30N 57°04' E 012°16'0 0.0
2015-Sep-01 23:24N 57°04' E 012°16'0 0.0
2015-Sep-01 22:30N 57°04' E 012°16'0 0.0
2015-Sep-01 21:30N 57°04' E 012°16'0 0.0
2015-Sep-01 19:19N 57°04' E 012°16'4 4.8
2015-Sep-01 18:33N 57°01' E 012°12'8 8.3
2015-Sep-01 17:33N 56°55' E 012°00'4 4.4
2015-Sep-01 16:33N 56°52' E 011°55'3 2.6
2015-Sep-01 15:33N 56°52' E 011°50'2 1.9
2015-Sep-01 14:28N 56°54' E 011°47'3 2.5
2015-Sep-01 13:27N 56°56' E 011°47'1 0.1
2015-Sep-01 04:30N 56°55' E 011°48'3 2.5
2015-Sep-01 03:27N 56°58' E 011°49'4 3.9
2015-Sep-01 02:33N 56°60' E 011°55'7 7.0
2015-Sep-01 01:31N 57°02' E 012°08'5 2.1
2015-Aug-31 23:03N 57°04' E 012°16'0 0.0
2015-Aug-31 19:03N 57°04' E 012°16'3 5.4
2015-Aug-31 18:33N 57°02' E 012°12'8 7.9
2015-Aug-31 17:31N 56°60' E 011°58'7 3.3
2015-Aug-31 15:28N 56°56' E 011°47'4 0.8
2015-Aug-31 10:25N 56°52' E 011°46'2 2.5
2015-Aug-31 09:29N 56°54' E 011°47'2 2.4
2015-Aug-31 08:32N 56°57' E 011°47'4 1.3
2015-Aug-31 05:24N 56°53' E 011°46'3 2.6
2015-Aug-31 04:24N 56°55' E 011°48'2 2.6
2015-Aug-31 03:33N 56°57' E 011°48'3 3.3
2015-Aug-31 02:33N 56°59' E 011°53'7 7.3
2015-Aug-31 01:33N 57°02' E 012°06'3 0.4
2015-Aug-30 18:30N 57°00' E 012°10'9 8.4
2015-Aug-30 17:24N 56°54' E 011°58'3 3.4
2015-Aug-30 16:33N 56°52' E 011°53'4 0.4
2015-Aug-30 06:11N 56°55' E 011°48'4 2.4
2015-Aug-30 04:32N 56°59' E 011°50'3 2.6
2015-Aug-30 03:33N 57°01' E 011°51'4 3.9
2015-Aug-30 02:27N 57°03' E 011°59'6 7.2
2015-Aug-30 01:33N 57°03' E 012°10'3 3.1
2015-Aug-30 00:31N 57°04' E 012°16'0 0.0
2015-Aug-29 22:31N 57°04' E 012°16'0 0.0
2015-Aug-29 21:31N 57°04' E 012°16'0 0.0
2015-Aug-29 20:31N 57°04' E 012°16'0 0.0
2015-Aug-29 19:31N 57°04' E 012°16'7 7.1
2015-Aug-29 18:32N 57°01' E 012°05'11 1.8
2015-Aug-29 12:28N 56°52' E 011°53'5 1.3
2015-Aug-29 09:07N 56°56' E 011°48'2 2.5
2015-Aug-29 08:18N 56°58' E 011°49'4 5.7
2015-Aug-29 07:33N 56°59' E 011°56'7 7.0
2015-Aug-29 06:33N 57°02' E 012°08'5 4.2
2015-Aug-29 05:25N 57°04' E 012°16'0 0.0
2015-Aug-29 04:33N 57°04' E 012°16'0 0.0
2015-Aug-29 03:33N 57°04' E 012°16'0 0.0
2015-Aug-29 02:27N 57°04' E 012°16'0 0.0
2015-Aug-29 01:33N 57°04' E 012°16'0 0.0
2015-Aug-29 00:33N 57°04' E 012°16'0 0.0
2015-Aug-28 23:27N 57°04' E 012°16'0 0.0
2015-Aug-28 22:33N 57°04' E 012°16'0 0.0
2015-Aug-28 21:33N 57°04' E 012°16'0 0.0
2015-Aug-28 20:33N 57°04' E 012°16'0 0.0
2015-Aug-28 19:33N 57°04' E 012°16'0 0.0
2015-Aug-28 18:33N 57°04' E 012°16'0 0.0
2015-Aug-28 17:33N 57°04' E 012°16'0 0.0
2015-Aug-28 16:33N 57°04' E 012°16'0 0.0
2015-Aug-28 15:33N 57°04' E 012°16'0 0.0
2015-Aug-28 14:33N 57°04' E 012°16'0 0.0
2015-Aug-28 13:27N 57°04' E 012°16'0 0.0
2015-Aug-28 12:33N 57°04' E 012°16'0 0.0
2015-Aug-28 10:33N 57°04' E 012°16'0 0.0
2015-Aug-28 09:27N 57°04' E 012°16'0 0.0
2015-Aug-28 08:33N 57°04' E 012°16'0 0.0
2015-Aug-28 07:15N 57°04' E 012°16'0 0.0
2015-Aug-28 06:15N 57°04' E 012°16'0 0.0
2015-Aug-28 05:21N 57°04' E 012°16'0 0.0
2015-Aug-28 04:33N 57°04' E 012°16'0 0.0
2015-Aug-28 03:33N 57°04' E 012°16'0 0.0
2015-Aug-27 18:15N 57°04' E 012°16'0 0.0
2015-Aug-27 17:33N 57°04' E 012°16'0 0.0
2015-Aug-27 16:33N 57°04' E 012°16'0 0.0
2015-Aug-27 15:27N 57°04' E 012°16'0 0.0
2015-Aug-27 14:03N 57°04' E 012°16'0 0.0
2015-Aug-27 13:33N 57°04' E 012°16'0 0.0
2015-Aug-27 11:21N 57°04' E 012°16'0 0.0
2015-Aug-27 10:33N 57°04' E 012°16'0 0.0
2015-Aug-27 08:33N 57°04' E 012°16'0 0.0
2015-Aug-27 07:33N 57°04' E 012°16'0 0.0
2015-Aug-27 06:21N 57°04' E 012°16'0 0.0
2015-Aug-27 05:27N 57°04' E 012°16'0 0.0
2015-Aug-27 04:15N 57°04' E 012°16'0 0.0
2015-Aug-27 03:33N 57°04' E 012°16'0 0.0
2015-Aug-27 02:33N 57°04' E 012°16'0 0.0
2015-Aug-27 01:33N 57°04' E 012°16'0 0.0
2015-Aug-27 00:33N 57°04' E 012°16'0 0.0
2015-Aug-26 23:27N 57°04' E 012°16'0 0.0
2015-Aug-26 22:33N 57°04' E 012°16'0 0.0
2015-Aug-26 21:15N 57°04' E 012°16'0 0.0
2015-Aug-26 20:33N 57°04' E 012°16'0 0.0
2015-Aug-26 19:33N 57°04' E 012°16'0 0.0
2015-Aug-26 18:33N 57°04' E 012°16'0 0.0
2015-Aug-26 17:27N 57°04' E 012°16'0 0.0
2015-Aug-26 16:33N 57°04' E 012°16'0 0.0
2015-Aug-26 15:15N 57°04' E 012°16'0 0.0
2015-Aug-26 14:33N 57°04' E 012°16'0 0.0
2015-Aug-26 13:27N 57°04' E 012°16'0 0.0
2015-Aug-26 12:33N 57°04' E 012°16'0 0.0
2015-Aug-26 11:33N 57°04' E 012°16'0 0.0
2015-Aug-26 10:27N 57°04' E 012°16'0 0.0
2015-Aug-26 09:33N 57°04' E 012°16'0 0.0
2015-Aug-26 08:33N 57°04' E 012°16'0 0.0
2015-Aug-26 07:33N 57°04' E 012°16'0 0.0
2015-Aug-26 06:33N 57°04' E 012°16'0 0.0
2015-Aug-26 05:33N 57°04' E 012°16'0 0.0
2015-Aug-26 04:33N 57°04' E 012°16'0 0.0
2015-Aug-26 03:33N 57°04' E 012°16'0 0.0
2015-Aug-26 02:33N 57°04' E 012°16'0 0.0
2015-Aug-26 01:33N 57°04' E 012°16'0 0.0
2015-Aug-26 00:27N 57°04' E 012°16'0 0.0
2015-Aug-25 23:21N 57°04' E 012°16'0 0.0
2015-Aug-25 22:27N 57°04' E 012°16'0 0.0
2015-Aug-25 21:33N 57°04' E 012°16'0 0.0
2015-Aug-25 20:33N 57°04' E 012°16'0 0.0
2015-Aug-25 19:33N 57°04' E 012°16'0 0.0
2015-Aug-25 18:33N 57°04' E 012°16'0 0.0
2015-Aug-25 17:21N 57°04' E 012°16'2 2.7
2015-Aug-25 16:31N 57°02' E 012°13'5 5.6
2015-Aug-25 15:32N 57°01' E 012°03'3 2.5
2015-Aug-25 14:29N 57°02' E 011°58'  
Track history (hours):
 
Tides and Currents Weather Stations Pressure Air Temp Water Temp Dewpoint Dewpoint Depression Visibility Wind Speed Wind Dir Waves Ship Positions

Vg 117 Kungsvik

Last reported at 2015-Sep-04 07:33 UTC. Time now 2015-Sep-04 07:43 UTC.
Position N 57°02' E 012°04'.

Length 17 m.

Type: Fishing. MMSI: 266137000.

Date/timePositionNaut miles runAvg speedWind from/ knotsBaromVisibWave heightAir tempDewpointWater temp
2015-Sep-04 07:33N 57°02' E 012°04'2 1.9
2015-Sep-04 06:33N 57°03' E 012°02'1 1.3
2015-Sep-04 05:34N 57°02' E 011°60'2 2.4
2015-Sep-04 04:34N 57°02' E 012°04'2 2.3
2015-Sep-04 03:34N 57°02' E 012°08'4 4.2
2015-Sep-04 02:32N 57°03' E 012°16'0 0.2
2015-Sep-04 00:27N 57°04' E 012°16'0 0.0
2015-Sep-03 22:09N 57°04' E 012°16'0 0.0
2015-Sep-03 21:15N 57°04' E 012°16'0 0.0
2015-Sep-03 20:15N 57°04' E 012°16'0 0.0
2015-Sep-03 18:33N 57°04' E 012°16'3 2.7
2015-Sep-03 17:33N 57°03' E 012°12'2 2.0
2015-Sep-03 16:28N 57°02' E 012°08'2 2.6
2015-Sep-03 15:33N 57°02' E 012°04'1 0.7
2015-Sep-03 14:33N 57°02' E 012°03'2 1.7
2015-Sep-03 13:33N 57°01' E 012°02'2 2.4
2015-Sep-03 12:33N 57°03' E 011°59'1 0.3
2015-Sep-03 10:27N 57°03' E 011°59'2 1.5
2015-Sep-03 09:27N 57°03' E 012°02'2 2.3
2015-Sep-03 08:31N 57°05' E 011°60'3 2.6
2015-Sep-03 07:30N 57°07' E 011°59'3 1.5
2015-Sep-03 05:14N 57°05' E 012°04'2 2.5
2015-Sep-03 04:32N 57°04' E 012°07'5 4.8
2015-Sep-03 03:33N 57°03' E 012°15'1 0.0
2015-Sep-02 10:24N 57°04' E 012°16'0 0.0
2015-Sep-02 09:30N 57°04' E 012°16'0 0.0
2015-Sep-02 08:30N 57°04' E 012°16'0 0.0
2015-Sep-02 07:24N 57°04' E 012°16'0 0.0
2015-Sep-02 06:30N 57°04' E 012°16'0 0.0
2015-Sep-02 05:18N 57°04' E 012°16'0 0.0
2015-Sep-02 04:30N 57°04' E 012°16'0 0.0
2015-Sep-02 03:30N 57°04' E 012°16'0 0.0
2015-Sep-02 02:30N 57°04' E 012°16'0 0.0
2015-Sep-02 01:25N 57°04' E 012°16'0 0.0
2015-Sep-02 00:30N 57°04' E 012°16'0 0.0
2015-Sep-01 23:24N 57°04' E 012°16'0 0.0
2015-Sep-01 22:30N 57°04' E 012°16'0 0.0
2015-Sep-01 21:30N 57°04' E 012°16'0 0.0
2015-Sep-01 19:19N 57°04' E 012°16'4 4.8
2015-Sep-01 18:33N 57°01' E 012°12'8 8.3
2015-Sep-01 17:33N 56°55' E 012°00'4 4.4
2015-Sep-01 16:33N 56°52' E 011°55'3 2.6
2015-Sep-01 15:33N 56°52' E 011°50'2 1.9
2015-Sep-01 14:28N 56°54' E 011°47'3 2.5
2015-Sep-01 13:27N 56°56' E 011°47'1 0.1
2015-Sep-01 04:30N 56°55' E 011°48'3 2.5
2015-Sep-01 03:27N 56°58' E 011°49'4 3.9
2015-Sep-01 02:33N 56°60' E 011°55'7 7.0
2015-Sep-01 01:31N 57°02' E 012°08'5 2.1
2015-Aug-31 23:03N 57°04' E 012°16'0 0.0
2015-Aug-31 19:03N 57°04' E 012°16'3 5.4
2015-Aug-31 18:33N 57°02' E 012°12'8 7.9
2015-Aug-31 17:31N 56°60' E 011°58'7 3.3
2015-Aug-31 15:28N 56°56' E 011°47'4 0.8
2015-Aug-31 10:25N 56°52' E 011°46'2 2.5
2015-Aug-31 09:29N 56°54' E 011°47'2 2.4
2015-Aug-31 08:32N 56°57' E 011°47'4 1.3
2015-Aug-31 05:24N 56°53' E 011°46'3 2.6
2015-Aug-31 04:24N 56°55' E 011°48'2 2.6
2015-Aug-31 03:33N 56°57' E 011°48'3 3.3
2015-Aug-31 02:33N 56°59' E 011°53'7 7.3
2015-Aug-31 01:33N 57°02' E 012°06'3 0.4
2015-Aug-30 18:30N 57°00' E 012°10'9 8.4
2015-Aug-30 17:24N 56°54' E 011°58'3 3.4
2015-Aug-30 16:33N 56°52' E 011°53'4 0.4
2015-Aug-30 06:11N 56°55' E 011°48'4 2.4
2015-Aug-30 04:32N 56°59' E 011°50'3 2.6
2015-Aug-30 03:33N 57°01' E 011°51'4 3.9
2015-Aug-30 02:27N 57°03' E 011°59'6 7.2
2015-Aug-30 01:33N 57°03' E 012°10'3 3.1
2015-Aug-30 00:31N 57°04' E 012°16'0 0.0
2015-Aug-29 22:31N 57°04' E 012°16'0 0.0
2015-Aug-29 21:31N 57°04' E 012°16'0 0.0
2015-Aug-29 20:31N 57°04' E 012°16'0 0.0
2015-Aug-29 19:31N 57°04' E 012°16'7 7.1
2015-Aug-29 18:32N 57°01' E 012°05'11 1.8
2015-Aug-29 12:28N 56°52' E 011°53'5 1.3
2015-Aug-29 09:07N 56°56' E 011°48'2 2.5
2015-Aug-29 08:18N 56°58' E 011°49'4 5.7
2015-Aug-29 07:33N 56°59' E 011°56'7 7.0
2015-Aug-29 06:33N 57°02' E 012°08'5 4.2
2015-Aug-29 05:25N 57°04' E 012°16'0 0.0
2015-Aug-29 04:33N 57°04' E 012°16'0 0.0
2015-Aug-29 03:33N 57°04' E 012°16'0 0.0
2015-Aug-29 02:27N 57°04' E 012°16'0 0.0
2015-Aug-29 01:33N 57°04' E 012°16'0 0.0
2015-Aug-29 00:33N 57°04' E 012°16'0 0.0
2015-Aug-28 23:27N 57°04' E 012°16'0 0.0
2015-Aug-28 22:33N 57°04' E 012°16'0 0.0
2015-Aug-28 21:33N 57°04' E 012°16'0 0.0
2015-Aug-28 20:33N 57°04' E 012°16'0 0.0
2015-Aug-28 19:33N 57°04' E 012°16'0 0.0
2015-Aug-28 18:33N 57°04' E 012°16'0 0.0
2015-Aug-28 17:33N 57°04' E 012°16'0 0.0
2015-Aug-28 16:33N 57°04' E 012°16'0 0.0
2015-Aug-28 15:33N 57°04' E 012°16'0 0.0
2015-Aug-28 14:33N 57°04' E 012°16'0 0.0
2015-Aug-28 13:27N 57°04' E 012°16'0 0.0
2015-Aug-28 12:33N 57°04' E 012°16'0 0.0
2015-Aug-28 10:33N 57°04' E 012°16'0 0.0
2015-Aug-28 09:27N 57°04' E 012°16'0 0.0
2015-Aug-28 08:33N 57°04' E 012°16'0 0.0
2015-Aug-28 07:15N 57°04' E 012°16'0 0.0
2015-Aug-28 06:15N 57°04' E 012°16'0 0.0
2015-Aug-28 05:21N 57°04' E 012°16'0 0.0
2015-Aug-28 04:33N 57°04' E 012°16'0 0.0
2015-Aug-28 03:33N 57°04' E 012°16'0 0.0
2015-Aug-27 18:15N 57°04' E 012°16'0 0.0
2015-Aug-27 17:33N 57°04' E 012°16'0 0.0
2015-Aug-27 16:33N 57°04' E 012°16'0 0.0
2015-Aug-27 15:27N 57°04' E 012°16'0 0.0
2015-Aug-27 14:03N 57°04' E 012°16'0 0.0
2015-Aug-27 13:33N 57°04' E 012°16'0 0.0
2015-Aug-27 11:21N 57°04' E 012°16'0 0.0
2015-Aug-27 10:33N 57°04' E 012°16'0 0.0
2015-Aug-27 08:33N 57°04' E 012°16'0 0.0
2015-Aug-27 07:33N 57°04' E 012°16'0 0.0
2015-Aug-27 06:21N 57°04' E 012°16'0 0.0
2015-Aug-27 05:27N 57°04' E 012°16'0 0.0
2015-Aug-27 04:15N 57°04' E 012°16'0 0.0
2015-Aug-27 03:33N 57°04' E 012°16'0 0.0
2015-Aug-27 02:33N 57°04' E 012°16'0 0.0
2015-Aug-27 01:33N 57°04' E 012°16'0 0.0
2015-Aug-27 00:33N 57°04' E 012°16'0 0.0
2015-Aug-26 23:27N 57°04' E 012°16'0 0.0
2015-Aug-26 22:33N 57°04' E 012°16'0 0.0
2015-Aug-26 21:15N 57°04' E 012°16'0 0.0
2015-Aug-26 20:33N 57°04' E 012°16'0 0.0
2015-Aug-26 19:33N 57°04' E 012°16'0 0.0
2015-Aug-26 18:33N 57°04' E 012°16'0 0.0
2015-Aug-26 17:27N 57°04' E 012°16'0 0.0
2015-Aug-26 16:33N 57°04' E 012°16'0 0.0
2015-Aug-26 15:15N 57°04' E 012°16'0 0.0
2015-Aug-26 14:33N 57°04' E 012°16'0 0.0
2015-Aug-26 13:27N 57°04' E 012°16'0 0.0
2015-Aug-26 12:33N 57°04' E 012°16'0 0.0
2015-Aug-26 11:33N 57°04' E 012°16'0 0.0
2015-Aug-26 10:27N 57°04' E 012°16'0 0.0
2015-Aug-26 09:33N 57°04' E 012°16'0 0.0
2015-Aug-26 08:33N 57°04' E 012°16'0 0.0
2015-Aug-26 07:33N 57°04' E 012°16'0 0.0
2015-Aug-26 06:33N 57°04' E 012°16'0 0.0
2015-Aug-26 05:33N 57°04' E 012°16'0 0.0
2015-Aug-26 04:33N 57°04' E 012°16'0 0.0
2015-Aug-26 03:33N 57°04' E 012°16'0 0.0
2015-Aug-26 02:33N 57°04' E 012°16'0 0.0
2015-Aug-26 01:33N 57°04' E 012°16'0 0.0
2015-Aug-26 00:27N 57°04' E 012°16'0 0.0
2015-Aug-25 23:21N 57°04' E 012°16'0 0.0
2015-Aug-25 22:27N 57°04' E 012°16'0 0.0
2015-Aug-25 21:33N 57°04' E 012°16'0 0.0
2015-Aug-25 20:33N 57°04' E 012°16'0 0.0
2015-Aug-25 19:33N 57°04' E 012°16'0 0.0
2015-Aug-25 18:33N 57°04' E 012°16'0 0.0
2015-Aug-25 17:21N 57°04' E 012°16'2 2.7
2015-Aug-25 16:31N 57°02' E 012°13'5 5.6
2015-Aug-25 15:32N 57°01' E 012°03'3 2.5
2015-Aug-25 14:29N 57°02' E 011°58'  

Dump ship's entire track history